Paris, IL

11:52 PM CDT on August 19, 2014 (GMT -0500)
KILPARIS2 | Change Station
CLOSE
Current Station
Personal Weather Station
Location: PARIS, IL
Elevation: 709 ft
Nearby Weather Stations

Elev 709 ft 39.57 °N, 87.66 °W | Updated 7 minutes ago

Mostly Cloudy
Mostly Cloudy
72.5 °F
Feels Like 72 °F
N
0.0
Wind Variable Wind from West
Gusts 3.1 mph

Today
High -- | Low -- °F
--% Chance of Precip.
Yesterday
High -- | Low -- °F
Precip. -- in
6:06 AM 7:41 PM
Waning Crescent, 24% visible
Pressure 29.84 in
Visibility 10.0 miles
Clouds Mostly Cloudy 7000 ft
Heat Index 72 °F
Dew Point 67 °F
Humidity 83%
Rainfall 0.00 in
Snow Depth Not available.
UV 0 out of 12
Pollen 10.10 out of 12
Air Quality Not available.
Flu Activity Not available.
METAR KPRG 200435Z AUTO 28004KT 10SM BKN070 23/22 A2984 RMK AO2 LTG DSNT SE T02260220

More Conditions Fewer Conditions

Pressure 29.84 in
Visibility 10.0 miles
Clouds Mostly Cloudy 7000 ft
Heat Index 72 °F
Dew Point 67 °F
Humidity 83%
Rainfall 0.00 in
Snow Depth Not available.
UV 0 out of 12
Pollen 10.10 out of 12
Air Quality Not available.
Flu Activity Not available.
METAR KPRG 200435Z AUTO 28004KT 10SM BKN070 23/22 A2984 RMK AO2 LTG DSNT SE T02260220

More Conditions Fewer Conditions

10-Day Weather Forecast

Almanac

Astronomy

Aug. 19, 2014 Rise Set
Actual Time 6:06 AM CDT 7:41 PM CDT
Civil Twilight 5:38 AM CDT 8:09 PM CDT
Nautical Twilight 5:03 AM CDT 8:43 PM CDT
Astronomical Twilight 4:27 AM CDT 9:20 PM CDT
Moon 12:59 AM CDT (8/19) 3:37 PM CDT (8/19)
Length of Visible Light 14h 31m
Length of Day
13h 34m
Tomorrow will be 2m 22s shorter.
Waning Crescent, 24% of the Moon is Illuminated
Aug 20
Waning Crescent
Aug 25
New
Sep 2
First Quarter
Sep 8
Full
Sep 15
Last Quarter

Yesterday's Extremes

State Highs State Lows

Community

WunderPhotos

Upload Photos

1,745,585 photos uploaded!

Nearby

Snow Depth

Station Depth Elevation
No new snow has been reported.

Earthquake Activity

City Distance Mag. Time & Date
No recent earthquake activity has been reported nearby.
Minimum magnitude displayed is 2.5.

Coastal Water Temperatures

Place Temperature
No Stations Reporting

Nearby Weather Stations